sensor_id;sensor_type;location;lat;lon;timestamp;temperature;humidity
19168;DHT22;9716;53.114;18.040;2022-12-16T00:01:56;-3.10;99.90
19168;DHT22;9716;53.114;18.040;2022-12-16T00:04:25;-3.10;99.90
19168;DHT22;9716;53.114;18.040;2022-12-16T00:06:53;-3.20;99.90
19168;DHT22;9716;53.114;18.040;2022-12-16T00:09:22;-3.20;99.90
19168;DHT22;9716;53.114;18.040;2022-12-16T00:11:50;-3.20;99.90
19168;DHT22;9716;53.114;18.040;2022-12-16T00:14:20;-3.30;99.90
19168;DHT22;9716;53.114;18.040;2022-12-16T00:16:49;-3.30;99.90
19168;DHT22;9716;53.114;18.040;2022-12-16T00:19:19;-3.40;99.90
19168;DHT22;9716;53.114;18.040;2022-12-16T00:21:47;-3.40;99.90
19168;DHT22;9716;53.114;18.040;2022-12-16T00:24:18;-3.40;99.90
19168;DHT22;9716;53.114;18.040;2022-12-16T00:26:46;-3.40;99.90
19168;DHT22;9716;53.114;18.040;2022-12-16T00:29:14;-3.50;99.90
19168;DHT22;9716;53.114;18.040;2022-12-16T00:31:43;-3.50;99.90
19168;DHT22;9716;53.114;18.040;2022-12-16T00:34:15;-3.60;99.90
19168;DHT22;9716;53.114;18.040;2022-12-16T00:36:45;-3.60;99.90
19168;DHT22;9716;53.114;18.040;2022-12-16T00:39:14;-3.60;99.90
19168;DHT22;9716;53.114;18.040;2022-12-16T00:41:42;-3.70;99.90
19168;DHT22;9716;53.114;18.040;2022-12-16T00:44:10;-3.70;99.90
19168;DHT22;9716;53.114;18.040;2022-12-16T00:46:39;-3.70;99.90
19168;DHT22;9716;53.114;18.040;2022-12-16T00:49:07;-3.80;99.90
19168;DHT22;9716;53.114;18.040;2022-12-16T00:51:36;-3.80;99.90
19168;DHT22;9716;53.114;18.040;2022-12-16T00:54:06;-3.80;99.90
19168;DHT22;9716;53.114;18.040;2022-12-16T00:56:34;-3.90;99.90
19168;DHT22;9716;53.114;18.040;2022-12-16T00:59:03;-4.00;99.90
19168;DHT22;9716;53.114;18.040;2022-12-16T01:01:31;-4.00;99.90
19168;DHT22;9716;53.114;18.040;2022-12-16T01:04:00;-4.10;99.90
19168;DHT22;9716;53.114;18.040;2022-12-16T01:06:28;-4.10;99.90
19168;DHT22;9716;53.114;18.040;2022-12-16T01:08:57;-4.10;99.90
19168;DHT22;9716;53.114;18.040;2022-12-16T01:11:26;-4.20;99.90
19168;DHT22;9716;53.114;18.040;2022-12-16T01:13:55;-4.20;99.90
19168;DHT22;9716;53.114;18.040;2022-12-16T01:16:23;-4.30;99.90
19168;DHT22;9716;53.114;18.040;2022-12-16T01:18:52;-4.30;99.90
19168;DHT22;9716;53.114;18.040;2022-12-16T01:21:22;-4.30;99.90
19168;DHT22;9716;53.114;18.040;2022-12-16T01:23:51;-4.40;99.90
19168;DHT22;9716;53.114;18.040;2022-12-16T01:26:21;-4.40;99.90
19168;DHT22;9716;53.114;18.040;2022-12-16T01:28:50;-4.30;99.90
19168;DHT22;9716;53.114;18.040;2022-12-16T01:31:21;-4.40;99.90
19168;DHT22;9716;53.114;18.040;2022-12-16T01:33:51;-4.40;99.90
19168;DHT22;9716;53.114;18.040;2022-12-16T01:36:19;-4.40;99.90
19168;DHT22;9716;53.114;18.040;2022-12-16T01:38:48;-4.50;99.90
19168;DHT22;9716;53.114;18.040;2022-12-16T01:41:18;-4.50;99.90
19168;DHT22;9716;53.114;18.040;2022-12-16T01:43:46;-4.50;99.90
19168;DHT22;9716;53.114;18.040;2022-12-16T01:46:19;-4.50;99.90
19168;DHT22;9716;53.114;18.040;2022-12-16T01:48:53;-4.60;99.90
19168;DHT22;9716;53.114;18.040;2022-12-16T01:51:25;-4.60;99.90
19168;DHT22;9716;53.114;18.040;2022-12-16T01:53:59;-4.70;99.90
19168;DHT22;9716;53.114;18.040;2022-12-16T01:56:30;-4.60;99.90
19168;DHT22;9716;53.114;18.040;2022-12-16T01:59:00;-4.70;99.90
19168;DHT22;9716;53.114;18.040;2022-12-16T02:01:30;-4.80;99.90
19168;DHT22;9716;53.114;18.040;2022-12-16T02:04:02;-4.80;99.90
19168;DHT22;9716;53.114;18.040;2022-12-16T02:06:31;-4.90;99.90
19168;DHT22;9716;53.114;18.040;2022-12-16T02:09:02;-4.90;99.90
19168;DHT22;9716;53.114;18.040;2022-12-16T02:11:57;-4.90;99.90
19168;DHT22;9716;53.114;18.040;2022-12-16T02:14:41;-5.00;99.90
19168;DHT22;9716;53.114;18.040;2022-12-16T02:17:19;-5.00;99.90
19168;DHT22;9716;53.114;18.040;2022-12-16T02:20:37;-5.10;99.90
19168;DHT22;9716;53.114;18.040;2022-12-16T02:26:50;-5.10;99.90
19168;DHT22;9716;53.114;18.040;2022-12-16T02:29:43;-5.10;99.90
19168;DHT22;9716;53.114;18.040;2022-12-16T02:32:22;-5.00;99.90
19168;DHT22;9716;53.114;18.040;2022-12-16T02:35:00;-5.20;99.90
19168;DHT22;9716;53.114;18.040;2022-12-16T02:37:36;-5.20;99.90
19168;DHT22;9716;53.114;18.040;2022-12-16T02:40:14;-5.20;99.90
19168;DHT22;9716;53.114;18.040;2022-12-16T02:42:47;-5.30;99.90
19168;DHT22;9716;53.114;18.040;2022-12-16T02:45:20;-5.30;99.90
19168;DHT22;9716;53.114;18.040;2022-12-16T02:47:53;-5.30;99.90
19168;DHT22;9716;53.114;18.040;2022-12-16T02:50:22;-5.40;99.90
19168;DHT22;9716;53.114;18.040;2022-12-16T02:52:54;-5.40;99.90
19168;DHT22;9716;53.114;18.040;2022-12-16T02:55:30;-5.40;99.90
19168;DHT22;9716;53.114;18.040;2022-12-16T02:58:09;-5.40;99.90
19168;DHT22;9716;53.114;18.040;2022-12-16T03:00:50;-5.50;99.90
19168;DHT22;9716;53.114;18.040;2022-12-16T03:03:27;-5.50;99.90
19168;DHT22;9716;53.114;18.040;2022-12-16T03:05:59;-5.50;99.90
19168;DHT22;9716;53.114;18.040;2022-12-16T03:08:32;-5.50;99.90
19168;DHT22;9716;53.114;18.040;2022-12-16T03:11:03;-5.60;99.90
19168;DHT22;9716;53.114;18.040;2022-12-16T03:13:37;-5.60;99.90
19168;DHT22;9716;53.114;18.040;2022-12-16T03:16:09;-5.60;99.90
19168;DHT22;9716;53.114;18.040;2022-12-16T03:18:42;-5.70;99.90
19168;DHT22;9716;53.114;18.040;2022-12-16T03:21:13;-5.70;99.90
19168;DHT22;9716;53.114;18.040;2022-12-16T03:23:46;-5.70;99.90
19168;DHT22;9716;53.114;18.040;2022-12-16T03:26:23;-5.70;99.90
19168;DHT22;9716;53.114;18.040;2022-12-16T03:28:57;-5.70;99.90
19168;DHT22;9716;53.114;18.040;2022-12-16T03:31:33;-5.70;99.90
19168;DHT22;9716;53.114;18.040;2022-12-16T03:34:10;-5.70;99.90
19168;DHT22;9716;53.114;18.040;2022-12-16T03:36:44;-5.80;99.90
19168;DHT22;9716;53.114;18.040;2022-12-16T03:39:17;-5.80;99.90
19168;DHT22;9716;53.114;18.040;2022-12-16T03:41:48;-5.80;99.90
19168;DHT22;9716;53.114;18.040;2022-12-16T03:44:17;-5.80;99.90
19168;DHT22;9716;53.114;18.040;2022-12-16T03:46:46;-5.80;99.90
19168;DHT22;9716;53.114;18.040;2022-12-16T03:49:16;-5.80;99.90
19168;DHT22;9716;53.114;18.040;2022-12-16T03:51:45;-5.90;99.90
19168;DHT22;9716;53.114;18.040;2022-12-16T03:54:13;-5.90;99.90
19168;DHT22;9716;53.114;18.040;2022-12-16T03:56:42;-5.90;99.90
19168;DHT22;9716;53.114;18.040;2022-12-16T03:59:11;-5.80;99.90
19168;DHT22;9716;53.114;18.040;2022-12-16T04:01:40;-5.90;99.90
19168;DHT22;9716;53.114;18.040;2022-12-16T04:04:09;-5.90;99.90
19168;DHT22;9716;53.114;18.040;2022-12-16T04:06:39;-5.90;99.90
19168;DHT22;9716;53.114;18.040;2022-12-16T04:09:07;-5.90;99.90
19168;DHT22;9716;53.114;18.040;2022-12-16T04:11:36;-5.90;99.90
19168;DHT22;9716;53.114;18.040;2022-12-16T04:14:22;-5.90;99.90
19168;DHT22;9716;53.114;18.040;2022-12-16T04:17:11;-5.90;99.90
19168;DHT22;9716;53.114;18.040;2022-12-16T04:19:58;-5.90;99.90
19168;DHT22;9716;53.114;18.040;2022-12-16T04:22:45;-5.90;99.90
19168;DHT22;9716;53.114;18.040;2022-12-16T04:25:33;-5.80;99.90
19168;DHT22;9716;53.114;18.040;2022-12-16T04:28:02;-5.90;99.90
19168;DHT22;9716;53.114;18.040;2022-12-16T04:30:32;-5.80;99.90
19168;DHT22;9716;53.114;18.040;2022-12-16T04:33:03;-5.90;99.90
19168;DHT22;9716;53.114;18.040;2022-12-16T04:35:50;-5.90;99.90
19168;DHT22;9716;53.114;18.040;2022-12-16T04:38:37;-5.90;99.90
19168;DHT22;9716;53.114;18.040;2022-12-16T04:41:23;-5.90;99.90
19168;DHT22;9716;53.114;18.040;2022-12-16T04:44:09;-5.90;99.90
19168;DHT22;9716;53.114;18.040;2022-12-16T04:46:55;-5.90;99.90
19168;DHT22;9716;53.114;18.040;2022-12-16T04:49:41;-6.00;99.90
19168;DHT22;9716;53.114;18.040;2022-12-16T04:52:27;-6.00;99.90
19168;DHT22;9716;53.114;18.040;2022-12-16T04:55:15;-6.00;99.90
19168;DHT22;9716;53.114;18.040;2022-12-16T04:58:01;-6.00;99.90
19168;DHT22;9716;53.114;18.040;2022-12-16T05:00:48;-6.00;99.90
19168;DHT22;9716;53.114;18.040;2022-12-16T05:03:34;-6.00;99.90
19168;DHT22;9716;53.114;18.040;2022-12-16T05:06:20;-6.00;99.90
19168;DHT22;9716;53.114;18.040;2022-12-16T05:16:33;-6.00;99.90
19168;DHT22;9716;53.114;18.040;2022-12-16T05:19:20;-6.00;99.90
19168;DHT22;9716;53.114;18.040;2022-12-16T05:22:06;-6.00;99.90
19168;DHT22;9716;53.114;18.040;2022-12-16T05:24:51;-5.90;99.90
19168;DHT22;9716;53.114;18.040;2022-12-16T05:27:37;-6.00;99.90
19168;DHT22;9716;53.114;18.040;2022-12-16T05:30:24;-6.00;99.90
19168;DHT22;9716;53.114;18.040;2022-12-16T05:33:11;-6.00;99.90
19168;DHT22;9716;53.114;18.040;2022-12-16T05:35:58;-6.00;99.90
19168;DHT22;9716;53.114;18.040;2022-12-16T05:38:44;-6.00;99.90
19168;DHT22;9716;53.114;18.040;2022-12-16T05:41:30;-5.90;99.90
19168;DHT22;9716;53.114;18.040;2022-12-16T05:44:16;-6.00;99.90
19168;DHT22;9716;53.114;18.040;2022-12-16T05:47:02;-5.90;99.90
19168;DHT22;9716;53.114;18.040;2022-12-16T05:49:49;-5.90;99.90
19168;DHT22;9716;53.114;18.040;2022-12-16T05:52:36;-5.90;99.90
19168;DHT22;9716;53.114;18.040;2022-12-16T05:55:22;-5.90;99.90
19168;DHT22;9716;53.114;18.040;2022-12-16T05:58:08;-5.90;99.90
19168;DHT22;9716;53.114;18.040;2022-12-16T06:00:54;-5.80;99.90
19168;DHT22;9716;53.114;18.040;2022-12-16T06:03:40;-5.80;99.90
19168;DHT22;9716;53.114;18.040;2022-12-16T06:06:28;-5.80;99.90
19168;DHT22;9716;53.114;18.040;2022-12-16T06:09:14;-5.80;99.90
19168;DHT22;9716;53.114;18.040;2022-12-16T06:11:59;-5.80;99.90
19168;DHT22;9716;53.114;18.040;2022-12-16T06:14:45;-5.80;99.90
19168;DHT22;9716;53.114;18.040;2022-12-16T06:17:31;-5.70;99.90
19168;DHT22;9716;53.114;18.040;2022-12-16T06:20:17;-5.70;99.90
19168;DHT22;9716;53.114;18.040;2022-12-16T06:23:03;-5.70;99.90
19168;DHT22;9716;53.114;18.040;2022-12-16T06:25:55;-5.60;99.90
19168;DHT22;9716;53.114;18.040;2022-12-16T06:28:41;-5.60;99.90
19168;DHT22;9716;53.114;18.040;2022-12-16T06:31:27;-5.60;99.90
19168;DHT22;9716;53.114;18.040;2022-12-16T06:34:13;-5.50;99.90
19168;DHT22;9716;53.114;18.040;2022-12-16T06:36:59;-5.50;99.90
19168;DHT22;9716;53.114;18.040;2022-12-16T06:39:47;-5.50;99.90
19168;DHT22;9716;53.114;18.040;2022-12-16T06:42:33;-5.40;99.90
19168;DHT22;9716;53.114;18.040;2022-12-16T06:45:30;-5.40;99.90
19168;DHT22;9716;53.114;18.040;2022-12-16T06:48:16;-5.40;99.90
19168;DHT22;9716;53.114;18.040;2022-12-16T06:51:03;-5.40;99.90
19168;DHT22;9716;53.114;18.040;2022-12-16T06:53:49;-5.40;99.90
19168;DHT22;9716;53.114;18.040;2022-12-16T06:56:36;-5.30;99.90
19168;DHT22;9716;53.114;18.040;2022-12-16T06:59:22;-5.30;99.90
19168;DHT22;9716;53.114;18.040;2022-12-16T07:02:08;-5.30;99.90
19168;DHT22;9716;53.114;18.040;2022-12-16T07:04:56;-5.30;99.90
19168;DHT22;9716;53.114;18.040;2022-12-16T07:07:46;-5.30;99.90
19168;DHT22;9716;53.114;18.040;2022-12-16T07:10:33;-5.30;99.90
19168;DHT22;9716;53.114;18.040;2022-12-16T07:13:22;-5.20;99.90
19168;DHT22;9716;53.114;18.040;2022-12-16T07:16:09;-5.20;99.90
19168;DHT22;9716;53.114;18.040;2022-12-16T07:18:55;-5.10;99.90
19168;DHT22;9716;53.114;18.040;2022-12-16T07:21:41;-5.10;99.90
19168;DHT22;9716;53.114;18.040;2022-12-16T07:24:27;-5.10;99.90
19168;DHT22;9716;53.114;18.040;2022-12-16T07:27:13;-5.00;99.90
19168;DHT22;9716;53.114;18.040;2022-12-16T07:30:00;-4.90;99.90
19168;DHT22;9716;53.114;18.040;2022-12-16T07:32:48;-4.90;99.90
19168;DHT22;9716;53.114;18.040;2022-12-16T07:35:48;-4.80;99.90
19168;DHT22;9716;53.114;18.040;2022-12-16T07:38:35;-4.70;99.90
19168;DHT22;9716;53.114;18.040;2022-12-16T07:41:21;-4.60;99.90
19168;DHT22;9716;53.114;18.040;2022-12-16T07:44:07;-4.60;99.90
19168;DHT22;9716;53.114;18.040;2022-12-16T07:46:54;-4.50;99.90
19168;DHT22;9716;53.114;18.040;2022-12-16T07:49:40;-4.40;99.90
19168;DHT22;9716;53.114;18.040;2022-12-16T07:52:26;-4.30;99.90
19168;DHT22;9716;53.114;18.040;2022-12-16T07:55:12;-4.20;99.90
19168;DHT22;9716;53.114;18.040;2022-12-16T07:57:58;-4.10;99.90
19168;DHT22;9716;53.114;18.040;2022-12-16T08:00:44;-4.10;99.90
19168;DHT22;9716;53.114;18.040;2022-12-16T08:03:36;-4.10;99.90
19168;DHT22;9716;53.114;18.040;2022-12-16T08:06:22;-4.00;99.90
19168;DHT22;9716;53.114;18.040;2022-12-16T08:09:08;-4.00;99.90
19168;DHT22;9716;53.114;18.040;2022-12-16T08:11:54;-3.80;99.90
19168;DHT22;9716;53.114;18.040;2022-12-16T08:14:40;-3.90;99.90
19168;DHT22;9716;53.114;18.040;2022-12-16T08:17:26;-3.90;99.90
19168;DHT22;9716;53.114;18.040;2022-12-16T08:20:13;-3.80;99.90
19168;DHT22;9716;53.114;18.040;2022-12-16T08:23:00;-3.70;99.90
19168;DHT22;9716;53.114;18.040;2022-12-16T08:25:45;-3.70;99.90
19168;DHT22;9716;53.114;18.040;2022-12-16T08:28:31;-3.60;99.90
19168;DHT22;9716;53.114;18.040;2022-12-16T08:31:17;-3.60;99.90
19168;DHT22;9716;53.114;18.040;2022-12-16T08:34:03;-3.50;99.90
19168;DHT22;9716;53.114;18.040;2022-12-16T08:36:50;-3.50;99.90
19168;DHT22;9716;53.114;18.040;2022-12-16T08:39:36;-3.40;99.90
19168;DHT22;9716;53.114;18.040;2022-12-16T08:42:42;-3.40;99.90
19168;DHT22;9716;53.114;18.040;2022-12-16T08:45:37;-3.40;99.90
19168;DHT22;9716;53.114;18.040;2022-12-16T08:48:22;-3.30;99.90
19168;DHT22;9716;53.114;18.040;2022-12-16T08:51:08;-3.30;99.90
19168;DHT22;9716;53.114;18.040;2022-12-16T08:53:55;-3.20;99.90
19168;DHT22;9716;53.114;18.040;2022-12-16T08:56:41;-3.20;99.90
19168;DHT22;9716;53.114;18.040;2022-12-16T08:59:27;-3.10;99.90
19168;DHT22;9716;53.114;18.040;2022-12-16T09:02:14;-3.10;99.90
19168;DHT22;9716;53.114;18.040;2022-12-16T09:05:01;-3.10;99.90
19168;DHT22;9716;53.114;18.040;2022-12-16T09:07:46;-3.00;99.90
19168;DHT22;9716;53.114;18.040;2022-12-16T09:10:33;-3.00;99.90
19168;DHT22;9716;53.114;18.040;2022-12-16T09:13:21;-3.00;99.90
19168;DHT22;9716;53.114;18.040;2022-12-16T09:16:07;-2.90;99.90
19168;DHT22;9716;53.114;18.040;2022-12-16T09:18:53;-2.90;99.90
19168;DHT22;9716;53.114;18.040;2022-12-16T09:21:48;-2.80;99.90
19168;DHT22;9716;53.114;18.040;2022-12-16T09:24:34;-2.80;99.90
19168;DHT22;9716;53.114;18.040;2022-12-16T09:27:23;-2.70;99.90
19168;DHT22;9716;53.114;18.040;2022-12-16T09:30:10;-2.70;99.90
19168;DHT22;9716;53.114;18.040;2022-12-16T09:32:55;-2.60;99.90
19168;DHT22;9716;53.114;18.040;2022-12-16T09:35:41;-2.60;99.90
19168;DHT22;9716;53.114;18.040;2022-12-16T09:38:27;-2.60;99.90
19168;DHT22;9716;53.114;18.040;2022-12-16T09:41:25;-2.60;99.90
19168;DHT22;9716;53.114;18.040;2022-12-16T09:44:20;-2.60;99.90
19168;DHT22;9716;53.114;18.040;2022-12-16T09:47:17;-2.60;99.90
19168;DHT22;9716;53.114;18.040;2022-12-16T09:50:16;-2.60;99.90
19168;DHT22;9716;53.114;18.040;2022-12-16T09:53:05;-2.60;99.90
19168;DHT22;9716;53.114;18.040;2022-12-16T09:55:51;-2.60;99.90
19168;DHT22;9716;53.114;18.040;2022-12-16T09:58:40;-2.60;99.90
19168;DHT22;9716;53.114;18.040;2022-12-16T10:01:33;-2.60;99.90
19168;DHT22;9716;53.114;18.040;2022-12-16T10:04:22;-2.50;99.90
19168;DHT22;9716;53.114;18.040;2022-12-16T10:07:13;-2.50;99.90
19168;DHT22;9716;53.114;18.040;2022-12-16T10:10:11;-2.40;99.90
19168;DHT22;9716;53.114;18.040;2022-12-16T10:13:06;-2.40;99.90
19168;DHT22;9716;53.114;18.040;2022-12-16T10:15:59;-2.30;99.90
19168;DHT22;9716;53.114;18.040;2022-12-16T10:19:00;-2.30;99.90
19168;DHT22;9716;53.114;18.040;2022-12-16T10:21:58;-2.30;99.90
19168;DHT22;9716;53.114;18.040;2022-12-16T10:24:52;-2.20;99.90
19168;DHT22;9716;53.114;18.040;2022-12-16T10:27:44;-2.20;99.90
19168;DHT22;9716;53.114;18.040;2022-12-16T10:30:34;-2.20;99.90
19168;DHT22;9716;53.114;18.040;2022-12-16T10:33:25;-2.10;99.90
19168;DHT22;9716;53.114;18.040;2022-12-16T10:36:16;-2.10;99.90
19168;DHT22;9716;53.114;18.040;2022-12-16T10:39:06;-2.00;99.90
19168;DHT22;9716;53.114;18.040;2022-12-16T10:42:02;-2.00;99.90
19168;DHT22;9716;53.114;18.040;2022-12-16T10:44:52;-2.00;99.90
19168;DHT22;9716;53.114;18.040;2022-12-16T10:47:39;-2.00;99.90
19168;DHT22;9716;53.114;18.040;2022-12-16T10:50:25;-2.00;99.90
19168;DHT22;9716;53.114;18.040;2022-12-16T10:53:15;-1.90;99.90
19168;DHT22;9716;53.114;18.040;2022-12-16T10:56:13;-1.90;99.90
19168;DHT22;9716;53.114;18.040;2022-12-16T10:59:06;-1.90;99.90
19168;DHT22;9716;53.114;18.040;2022-12-16T11:01:56;-2.00;99.90
19168;DHT22;9716;53.114;18.040;2022-12-16T11:04:43;-2.00;99.90
19168;DHT22;9716;53.114;18.040;2022-12-16T11:07:32;-2.00;99.90
19168;DHT22;9716;53.114;18.040;2022-12-16T11:10:35;-2.00;99.90
19168;DHT22;9716;53.114;18.040;2022-12-16T11:13:24;-2.00;99.90
19168;DHT22;9716;53.114;18.040;2022-12-16T11:16:14;-2.10;99.90
19168;DHT22;9716;53.114;18.040;2022-12-16T11:19:02;-2.10;99.90
19168;DHT22;9716;53.114;18.040;2022-12-16T11:21:48;-2.10;99.90
19168;DHT22;9716;53.114;18.040;2022-12-16T11:24:55;-2.10;99.90
19168;DHT22;9716;53.114;18.040;2022-12-16T11:27:49;-2.20;99.90
19168;DHT22;9716;53.114;18.040;2022-12-16T11:30:35;-2.20;99.90
19168;DHT22;9716;53.114;18.040;2022-12-16T11:33:23;-2.10;99.90
19168;DHT22;9716;53.114;18.040;2022-12-16T11:36:13;-2.10;99.90
19168;DHT22;9716;53.114;18.040;2022-12-16T11:39:01;-2.10;99.90
19168;DHT22;9716;53.114;18.040;2022-12-16T11:41:52;-2.20;99.90
19168;DHT22;9716;53.114;18.040;2022-12-16T11:44:43;-2.10;99.90
19168;DHT22;9716;53.114;18.040;2022-12-16T11:47:35;-2.10;99.90
19168;DHT22;9716;53.114;18.040;2022-12-16T11:50:25;-2.10;99.90
19168;DHT22;9716;53.114;18.040;2022-12-16T11:53:24;-2.00;99.90
19168;DHT22;9716;53.114;18.040;2022-12-16T11:56:16;-2.00;99.90
19168;DHT22;9716;53.114;18.040;2022-12-16T11:59:09;-2.00;99.90
19168;DHT22;9716;53.114;18.040;2022-12-16T12:01:59;-2.00;99.90
19168;DHT22;9716;53.114;18.040;2022-12-16T12:04:48;-2.00;99.90
19168;DHT22;9716;53.114;18.040;2022-12-16T12:07:38;-2.10;99.90
19168;DHT22;9716;53.114;18.040;2022-12-16T12:10:43;-2.10;99.90
19168;DHT22;9716;53.114;18.040;2022-12-16T12:13:43;-2.10;99.90
19168;DHT22;9716;53.114;18.040;2022-12-16T12:16:40;-2.10;99.90
19168;DHT22;9716;53.114;18.040;2022-12-16T12:19:37;-2.10;99.90
19168;DHT22;9716;53.114;18.040;2022-12-16T12:22:34;-2.10;99.90
19168;DHT22;9716;53.114;18.040;2022-12-16T12:25:27;-2.10;99.90
19168;DHT22;9716;53.114;18.040;2022-12-16T12:28:22;-2.10;99.90
19168;DHT22;9716;53.114;18.040;2022-12-16T12:31:24;-2.00;99.90
19168;DHT22;9716;53.114;18.040;2022-12-16T12:34:20;-2.00;99.90
19168;DHT22;9716;53.114;18.040;2022-12-16T12:37:13;-2.00;99.90
19168;DHT22;9716;53.114;18.040;2022-12-16T12:40:15;-2.00;99.90
19168;DHT22;9716;53.114;18.040;2022-12-16T12:43:10;-2.00;99.90
19168;DHT22;9716;53.114;18.040;2022-12-16T12:46:05;-2.00;99.90
19168;DHT22;9716;53.114;18.040;2022-12-16T12:49:11;-2.00;99.90
19168;DHT22;9716;53.114;18.040;2022-12-16T12:52:04;-1.90;99.90
19168;DHT22;9716;53.114;18.040;2022-12-16T12:54:57;-1.90;99.90
19168;DHT22;9716;53.114;18.040;2022-12-16T12:57:47;-1.90;99.90
19168;DHT22;9716;53.114;18.040;2022-12-16T13:00:38;-1.90;99.90
19168;DHT22;9716;53.114;18.040;2022-12-16T13:03:32;-2.00;99.90
19168;DHT22;9716;53.114;18.040;2022-12-16T13:06:19;-2.00;99.90
19168;DHT22;9716;53.114;18.040;2022-12-16T13:09:21;-2.10;99.90
19168;DHT22;9716;53.114;18.040;2022-12-16T13:12:27;-2.10;99.90
19168;DHT22;9716;53.114;18.040;2022-12-16T13:15:34;-2.10;99.90
19168;DHT22;9716;53.114;18.040;2022-12-16T13:18:23;-2.20;99.90
19168;DHT22;9716;53.114;18.040;2022-12-16T13:24:39;-2.30;99.90
19168;DHT22;9716;53.114;18.040;2022-12-16T13:27:29;-2.30;99.90
19168;DHT22;9716;53.114;18.040;2022-12-16T13:30:30;-2.30;99.90
19168;DHT22;9716;53.114;18.040;2022-12-16T13:33:26;-2.30;99.90
19168;DHT22;9716;53.114;18.040;2022-12-16T13:36:14;-2.30;99.90
19168;DHT22;9716;53.114;18.040;2022-12-16T13:39:29;-2.30;99.90
19168;DHT22;9716;53.114;18.040;2022-12-16T13:42:52;-2.30;99.90
19168;DHT22;9716;53.114;18.040;2022-12-16T13:45:41;-2.40;99.90
19168;DHT22;9716;53.114;18.040;2022-12-16T13:48:34;-2.40;99.90
19168;DHT22;9716;53.114;18.040;2022-12-16T13:55:00;-2.40;99.90
19168;DHT22;9716;53.114;18.040;2022-12-16T13:58:00;-2.40;99.90
19168;DHT22;9716;53.114;18.040;2022-12-16T14:00:55;-2.40;99.90
19168;DHT22;9716;53.114;18.040;2022-12-16T14:03:45;-2.50;99.90
19168;DHT22;9716;53.114;18.040;2022-12-16T14:06:36;-2.50;99.90
19168;DHT22;9716;53.114;18.040;2022-12-16T14:09:28;-2.50;99.90
19168;DHT22;9716;53.114;18.040;2022-12-16T14:12:24;-2.50;99.90
19168;DHT22;9716;53.114;18.040;2022-12-16T14:15:26;-2.50;99.90
19168;DHT22;9716;53.114;18.040;2022-12-16T14:18:19;-2.60;99.90
19168;DHT22;9716;53.114;18.040;2022-12-16T14:21:14;-2.60;99.90
19168;DHT22;9716;53.114;18.040;2022-12-16T14:24:06;-2.60;99.90
19168;DHT22;9716;53.114;18.040;2022-12-16T14:26:54;-2.70;99.90
19168;DHT22;9716;53.114;18.040;2022-12-16T14:29:42;-2.70;99.90
19168;DHT22;9716;53.114;18.040;2022-12-16T14:32:31;-2.70;99.90
19168;DHT22;9716;53.114;18.040;2022-12-16T14:35:20;-2.80;99.90
19168;DHT22;9716;53.114;18.040;2022-12-16T14:38:20;-2.80;99.90
19168;DHT22;9716;53.114;18.040;2022-12-16T14:41:09;-2.80;99.90
19168;DHT22;9716;53.114;18.040;2022-12-16T14:43:56;-2.80;99.90
19168;DHT22;9716;53.114;18.040;2022-12-16T14:46:41;-2.70;99.90
19168;DHT22;9716;53.114;18.040;2022-12-16T14:49:29;-2.60;99.90
19168;DHT22;9716;53.114;18.040;2022-12-16T14:52:17;-2.40;99.90
19168;DHT22;9716;53.114;18.040;2022-12-16T14:55:14;-2.30;99.90
19168;DHT22;9716;53.114;18.040;2022-12-16T14:58:02;-2.20;99.90
19168;DHT22;9716;53.114;18.040;2022-12-16T15:01:11;-2.20;99.90
19168;DHT22;9716;53.114;18.040;2022-12-16T15:03:58;-2.10;99.90
19168;DHT22;9716;53.114;18.040;2022-12-16T15:06:49;-2.00;99.90
19168;DHT22;9716;53.114;18.040;2022-12-16T15:09:39;-1.90;99.90
19168;DHT22;9716;53.114;18.040;2022-12-16T15:12:31;-1.80;99.90
19168;DHT22;9716;53.114;18.040;2022-12-16T15:15:25;-1.70;99.90
19168;DHT22;9716;53.114;18.040;2022-12-16T15:18:17;-1.60;99.90
19168;DHT22;9716;53.114;18.040;2022-12-16T15:21:06;-1.60;99.90
19168;DHT22;9716;53.114;18.040;2022-12-16T15:23:53;-1.50;99.90
19168;DHT22;9716;53.114;18.040;2022-12-16T15:26:40;-1.50;99.90
19168;DHT22;9716;53.114;18.040;2022-12-16T15:29:38;-1.40;99.90
19168;DHT22;9716;53.114;18.040;2022-12-16T15:32:28;-1.40;99.90
19168;DHT22;9716;53.114;18.040;2022-12-16T15:35:28;-1.40;99.90
19168;DHT22;9716;53.114;18.040;2022-12-16T15:38:21;-1.40;99.90
19168;DHT22;9716;53.114;18.040;2022-12-16T15:41:20;-1.40;99.90
19168;DHT22;9716;53.114;18.040;2022-12-16T15:44:14;-1.40;99.90
19168;DHT22;9716;53.114;18.040;2022-12-16T15:47:00;-1.40;99.90
19168;DHT22;9716;53.114;18.040;2022-12-16T15:49:47;-1.40;99.90
19168;DHT22;9716;53.114;18.040;2022-12-16T15:52:36;-1.40;99.90
19168;DHT22;9716;53.114;18.040;2022-12-16T15:55:28;-1.40;99.90
19168;DHT22;9716;53.114;18.040;2022-12-16T15:58:22;-1.40;99.90
19168;DHT22;9716;53.114;18.040;2022-12-16T16:01:25;-1.40;99.90
19168;DHT22;9716;53.114;18.040;2022-12-16T16:04:18;-1.40;99.90
19168;DHT22;9716;53.114;18.040;2022-12-16T16:07:13;-1.40;99.90
19168;DHT22;9716;53.114;18.040;2022-12-16T16:10:14;-1.40;99.90
19168;DHT22;9716;53.114;18.040;2022-12-16T16:13:00;-1.40;99.90
19168;DHT22;9716;53.114;18.040;2022-12-16T16:15:48;-1.40;99.90
19168;DHT22;9716;53.114;18.040;2022-12-16T16:18:34;-1.40;99.90
19168;DHT22;9716;53.114;18.040;2022-12-16T16:21:20;-1.50;99.90
19168;DHT22;9716;53.114;18.040;2022-12-16T16:24:07;-1.50;99.90
19168;DHT22;9716;53.114;18.040;2022-12-16T16:26:53;-1.50;99.90
19168;DHT22;9716;53.114;18.040;2022-12-16T16:29:39;-1.60;99.90
19168;DHT22;9716;53.114;18.040;2022-12-16T16:32:28;-1.60;99.90
19168;DHT22;9716;53.114;18.040;2022-12-16T16:35:14;-1.70;99.90
19168;DHT22;9716;53.114;18.040;2022-12-16T16:38:00;-1.70;99.90
19168;DHT22;9716;53.114;18.040;2022-12-16T16:41:01;-1.70;99.90
19168;DHT22;9716;53.114;18.040;2022-12-16T16:43:47;-1.70;99.90
19168;DHT22;9716;53.114;18.040;2022-12-16T16:46:36;-1.70;99.90
19168;DHT22;9716;53.114;18.040;2022-12-16T16:49:29;-1.70;99.90
19168;DHT22;9716;53.114;18.040;2022-12-16T16:52:17;-1.70;99.90
19168;DHT22;9716;53.114;18.040;2022-12-16T16:55:04;-1.70;99.90
19168;DHT22;9716;53.114;18.040;2022-12-16T16:57:50;-1.70;99.90
19168;DHT22;9716;53.114;18.040;2022-12-16T17:00:36;-1.70;99.90
19168;DHT22;9716;53.114;18.040;2022-12-16T17:03:23;-1.70;99.90
19168;DHT22;9716;53.114;18.040;2022-12-16T17:06:11;-1.70;99.90
19168;DHT22;9716;53.114;18.040;2022-12-16T17:08:57;-1.70;99.90
19168;DHT22;9716;53.114;18.040;2022-12-16T17:11:43;-1.70;99.90
19168;DHT22;9716;53.114;18.040;2022-12-16T17:14:29;-1.80;99.90
19168;DHT22;9716;53.114;18.040;2022-12-16T17:17:15;-1.80;99.90
19168;DHT22;9716;53.114;18.040;2022-12-16T17:20:01;-1.80;99.90
19168;DHT22;9716;53.114;18.040;2022-12-16T17:22:48;-1.80;99.90
19168;DHT22;9716;53.114;18.040;2022-12-16T17:25:34;-1.90;99.90
19168;DHT22;9716;53.114;18.040;2022-12-16T17:28:22;-2.00;99.90
19168;DHT22;9716;53.114;18.040;2022-12-16T17:31:09;-2.10;99.90
19168;DHT22;9716;53.114;18.040;2022-12-16T17:33:56;-2.20;99.90
19168;DHT22;9716;53.114;18.040;2022-12-16T17:36:41;-2.20;99.90
19168;DHT22;9716;53.114;18.040;2022-12-16T17:39:28;-2.20;99.90
19168;DHT22;9716;53.114;18.040;2022-12-16T17:42:15;-2.30;99.90